<?xml version="1.0" encoding="utf-8"?>
<gpx xmlns:xsi="http://www.w3.org/2001/XMLSchema-instance" xmlns:xsd="http://www.w3.org/2001/XMLSchema" version="1.1" creator="Shapelink.com" xmlns="http://www.topografix.com/GPX/1/1" xmlns:gpxtpx="http://www.garmin.com/xmlschemas/TrackPointExtension/v1">
  <metadata>
    <name>Övrigt 1.65 km, 2020-07-27</name>
    <desc></desc>
    <author><name>Marian Moron</name></author> 
    <time>2020-07-27T20:31:23Z</time>
  </metadata>
  <trk>
    <name>Övrigt 1.65 km, 2020-07-27</name>
    <trkseg>
      <trkpt lat="51.229593945986" lon="4.458157763566">
        <ele>0</ele>
        <time>2020-07-27T20:31:23Z</time>
      </trkpt>
      <trkpt lat="51.229328575032" lon="4.458027173564">
        <ele>0</ele>
        <time>2020-07-27T20:31:43Z</time>
      </trkpt>
      <trkpt lat="51.228869163093" lon="4.458060030612">
        <ele>0</ele>
        <time>2020-07-27T20:32:17Z</time>
      </trkpt>
      <trkpt lat="51.228863966315" lon="4.458082913199">
        <ele>0</ele>
        <time>2020-07-27T20:32:18Z</time>
      </trkpt>
      <trkpt lat="51.228621477948" lon="4.458118117179">
        <ele>0</ele>
        <time>2020-07-27T20:32:31Z</time>
      </trkpt>
      <trkpt lat="51.228574539308" lon="4.458056174938">
        <ele>0</ele>
        <time>2020-07-27T20:32:37Z</time>
      </trkpt>
      <trkpt lat="51.228591219289" lon="4.458081236819">
        <ele>0</ele>
        <time>2020-07-27T20:32:47Z</time>
      </trkpt>
      <trkpt lat="51.228581747742" lon="4.458172767167">
        <ele>0</ele>
        <time>2020-07-27T20:32:58Z</time>
      </trkpt>
      <trkpt lat="51.228268851415" lon="4.458424559443">
        <ele>0</ele>
        <time>2020-07-27T20:33:53Z</time>
      </trkpt>
      <trkpt lat="51.228220404033" lon="4.458423888891">
        <ele>0</ele>
        <time>2020-07-27T20:33:59Z</time>
      </trkpt>
      <trkpt lat="51.228143625829" lon="4.458480215259">
        <ele>0</ele>
        <time>2020-07-27T20:34:06Z</time>
      </trkpt>
      <trkpt lat="51.228042204839" lon="4.458546683726">
        <ele>0</ele>
        <time>2020-07-27T20:34:13Z</time>
      </trkpt>
      <trkpt lat="51.227902730023" lon="4.458626060319">
        <ele>0</ele>
        <time>2020-07-27T20:34:26Z</time>
      </trkpt>
      <trkpt lat="51.227621265821" lon="4.458823286426">
        <ele>0.8</ele>
        <time>2020-07-27T20:34:51Z</time>
      </trkpt>
      <trkpt lat="51.227560748503" lon="4.458840050226">
        <ele>2.4</ele>
        <time>2020-07-27T20:35:00Z</time>
      </trkpt>
      <trkpt lat="51.227237961534" lon="4.459003664914">
        <ele>6.4</ele>
        <time>2020-07-27T20:35:31Z</time>
      </trkpt>
      <trkpt lat="51.226836133248" lon="4.459233496612">
        <ele>8.6</ele>
        <time>2020-07-27T20:35:55Z</time>
      </trkpt>
      <trkpt lat="51.226730186032" lon="4.459281021985">
        <ele>8.4</ele>
        <time>2020-07-27T20:36:03Z</time>
      </trkpt>
      <trkpt lat="51.226580066203" lon="4.459412450177">
        <ele>7</ele>
        <time>2020-07-27T20:36:15Z</time>
      </trkpt>
      <trkpt lat="51.226534636305" lon="4.459451342193">
        <ele>5</ele>
        <time>2020-07-27T20:36:21Z</time>
      </trkpt>
      <trkpt lat="51.226386611951" lon="4.459561061264">
        <ele>0.4</ele>
        <time>2020-07-27T20:36:35Z</time>
      </trkpt>
      <trkpt lat="51.226288962816" lon="4.459586961335">
        <ele>2</ele>
        <time>2020-07-27T20:36:42Z</time>
      </trkpt>
      <trkpt lat="51.226240599253" lon="4.459448743804">
        <ele>2.2</ele>
        <time>2020-07-27T20:36:58Z</time>
      </trkpt>
      <trkpt lat="51.226131299277" lon="4.459255960104">
        <ele>4.8</ele>
        <time>2020-07-27T20:37:26Z</time>
      </trkpt>
      <trkpt lat="51.225962739268" lon="4.459222600142">
        <ele>22.2</ele>
        <time>2020-07-27T20:38:51Z</time>
      </trkpt>
      <trkpt lat="51.225942957984" lon="4.458728654775">
        <ele>4.6</ele>
        <time>2020-07-27T20:39:30Z</time>
      </trkpt>
      <trkpt lat="51.225839106243" lon="4.458550455581">
        <ele>8.6</ele>
        <time>2020-07-27T20:39:49Z</time>
      </trkpt>
      <trkpt lat="51.225927116193" lon="4.458449621324">
        <ele>15.4</ele>
        <time>2020-07-27T20:40:04Z</time>
      </trkpt>
      <trkpt lat="51.22613523877" lon="4.458435623551">
        <ele>22.8</ele>
        <time>2020-07-27T20:40:24Z</time>
      </trkpt>
      <trkpt lat="51.226272031378" lon="4.458407711824">
        <ele>32.2</ele>
        <time>2020-07-27T20:40:56Z</time>
      </trkpt>
      <trkpt lat="51.226312599774" lon="4.45838541597">
        <ele>31.8</ele>
        <time>2020-07-27T20:40:59Z</time>
      </trkpt>
      <trkpt lat="51.226344115718" lon="4.458367478704">
        <ele>29.2</ele>
        <time>2020-07-27T20:41:01Z</time>
      </trkpt>
      <trkpt lat="51.226344953908" lon="4.45841139986">
        <ele>22.6</ele>
        <time>2020-07-27T20:41:11Z</time>
      </trkpt>
      <trkpt lat="51.22626264365" lon="4.458460098699">
        <ele>9.6</ele>
        <time>2020-07-27T20:41:31Z</time>
      </trkpt>
      <trkpt lat="51.226374290558" lon="4.458341410995">
        <ele>6.6</ele>
        <time>2020-07-27T20:41:50Z</time>
      </trkpt>
      <trkpt lat="51.226415110411" lon="4.458207635871">
        <ele>6.2</ele>
        <time>2020-07-27T20:42:04Z</time>
      </trkpt>
      <trkpt lat="51.22655517196" lon="4.458083499932">
        <ele>6.2</ele>
        <time>2020-07-27T20:42:26Z</time>
      </trkpt>
      <trkpt lat="51.22679573249" lon="4.457850818388">
        <ele>7.2</ele>
        <time>2020-07-27T20:42:51Z</time>
      </trkpt>
      <trkpt lat="51.226726330358" lon="4.457125784038">
        <ele>4.6</ele>
        <time>2020-07-27T20:43:24Z</time>
      </trkpt>
      <trkpt lat="51.226656760588" lon="4.456888827725">
        <ele>0</ele>
        <time>2020-07-27T20:43:41Z</time>
      </trkpt>
      <trkpt lat="51.226692299844" lon="4.456848929881">
        <ele>0</ele>
        <time>2020-07-27T20:43:46Z</time>
      </trkpt>
      <trkpt lat="51.226902853172" lon="4.456645165892">
        <ele>0.2</ele>
        <time>2020-07-27T20:44:41Z</time>
      </trkpt>
      <trkpt lat="51.227299819956" lon="4.45650284123">
        <ele>0</ele>
        <time>2020-07-27T20:46:23Z</time>
      </trkpt>
      <trkpt lat="51.227635682689" lon="4.456088188637">
        <ele>1.6</ele>
        <time>2020-07-27T20:47:14Z</time>
      </trkpt>
      <trkpt lat="51.227668120642" lon="4.45607452614">
        <ele>2.2</ele>
        <time>2020-07-27T20:47:18Z</time>
      </trkpt>
      <trkpt lat="51.228060645019" lon="4.455907223416">
        <ele>2.2</ele>
        <time>2020-07-27T20:48:34Z</time>
      </trkpt>
      <trkpt lat="51.228113450989" lon="4.45602088198">
        <ele>0.6</ele>
        <time>2020-07-27T20:48:46Z</time>
      </trkpt>
      <trkpt lat="51.228163490932" lon="4.456230764756">
        <ele>0.2</ele>
        <time>2020-07-27T20:49:23Z</time>
      </trkpt>
      <trkpt lat="51.228319813367" lon="4.456647596643">
        <ele>7</ele>
        <time>2020-07-27T20:49:57Z</time>
      </trkpt>
      <trkpt lat="51.228394412277" lon="4.456927133008">
        <ele>4.6</ele>
        <time>2020-07-27T20:50:20Z</time>
      </trkpt>
      <trkpt lat="51.228537575129" lon="4.457003743574">
        <ele>5</ele>
        <time>2020-07-27T20:50:40Z</time>
      </trkpt>
      <trkpt lat="51.228978211612" lon="4.456873824124">
        <ele>6.2</ele>
        <time>2020-07-27T20:51:22Z</time>
      </trkpt>
      <trkpt lat="51.229261519832" lon="4.456827053122">
        <ele>6</ele>
        <time>2020-07-27T20:51:52Z</time>
      </trkpt>
      <trkpt lat="51.229281636392" lon="4.456845744759">
        <ele>5.4</ele>
        <time>2020-07-27T20:51:56Z</time>
      </trkpt>
      <trkpt lat="51.229544241319" lon="4.456814564091">
        <ele>12.6</ele>
        <time>2020-07-27T20:52:52Z</time>
      </trkpt>
      <trkpt lat="51.229928467615" lon="4.456679531682">
        <ele>16.8</ele>
        <time>2020-07-27T20:53:39Z</time>
      </trkpt>
      <trkpt lat="51.230161819711" lon="4.456560592521">
        <ele>7.8</ele>
        <time>2020-07-27T20:54:09Z</time>
      </trkpt>
      <trkpt lat="51.230279333949" lon="4.456676095103">
        <ele>6.6</ele>
        <time>2020-07-27T20:55:08Z</time>
      </trkpt>
      <trkpt lat="51.230250081118" lon="4.456674334904">
        <ele>6.8</ele>
        <time>2020-07-27T20:55:11Z</time>
      </trkpt>
      <trkpt lat="51.229789244256" lon="4.456656397638">
        <ele>12.6</ele>
        <time>2020-07-27T20:55:48Z</time>
      </trkpt>
      <trkpt lat="51.229752447715" lon="4.456814983186">
        <ele>16.2</ele>
        <time>2020-07-27T20:55:57Z</time>
      </trkpt>
      <trkpt lat="51.229841798769" lon="4.457523421374">
        <ele>9.4</ele>
        <time>2020-07-27T20:56:32Z</time>
      </trkpt>
      <trkpt lat="51.229894772377" lon="4.457755516185">
        <ele>0.2</ele>
        <time>2020-07-27T20:56:48Z</time>
      </trkpt>
      <trkpt lat="51.22994145956" lon="4.457794072925">
        <ele>0</ele>
        <time>2020-07-27T20:56:56Z</time>
      </trkpt>
      <trkpt lat="51.23004036598" lon="4.457774124003">
        <ele>0</ele>
        <time>2020-07-27T20:57:07Z</time>
      </trkpt>
      <trkpt lat="51.230232814404" lon="4.457799102065">
        <ele>0</ele>
        <time>2020-07-27T20:58:04Z</time>
      </trkpt>
      <trkpt lat="51.230010694054" lon="4.457907480032">
        <ele>2</ele>
        <time>2020-07-27T20:58:33Z</time>
      </trkpt>
      <trkpt lat="51.229836853448" lon="4.457906055109">
        <ele>4.2</ele>
        <time>2020-07-27T20:58:54Z</time>
      </trkpt>
      <trkpt lat="51.229392193653" lon="4.458052235445">
        <ele>4.6</ele>
        <time>2020-07-27T20:59:40Z</time>
      </trkpt>
      <trkpt lat="51.22913260621" lon="4.45813312078">
        <ele>0</ele>
        <time>2020-07-27T21:00:36Z</time>
      </trkpt>
      <trkpt lat="51.229173090787" lon="4.458117278989">
        <ele>0</ele>
        <time>2020-07-27T21:00:40Z</time>
      </trkpt>
      <trkpt lat="51.229619343143" lon="4.457991969584">
        <ele>0</ele>
        <time>2020-07-27T21:01:25Z</time>
      </trkpt>
      <trkpt lat="51.229735013363" lon="4.458010661221">
        <ele>1.8</ele>
        <time>2020-07-27T21:01:59Z</time>
      </trkpt>
    </trkseg>
  </trk>
</gpx>